sensor_id;sensor_type;location;lat;lon;timestamp;pressure;altitude;pressure_sealevel;temperature;humidity
46015;BME280;36844;51.898;-0.874;2023-05-02T00:01:12;101154.44;;;18.67;
46015;BME280;36844;51.898;-0.874;2023-05-02T00:03:37;101159.84;;;18.67;
46015;BME280;36844;51.898;-0.874;2023-05-02T00:06:02;101161.03;;;18.66;
46015;BME280;36844;51.898;-0.874;2023-05-02T00:08:28;101162.19;;;18.65;
46015;BME280;36844;51.898;-0.874;2023-05-02T00:10:53;101164.88;;;18.65;
46015;BME280;36844;51.898;-0.874;2023-05-02T00:13:18;101163.31;;;18.64;
46015;BME280;36844;51.898;-0.874;2023-05-02T00:15:43;101169.88;;;18.63;
46015;BME280;36844;51.898;-0.874;2023-05-02T00:18:09;101162.19;;;18.61;
46015;BME280;36844;51.898;-0.874;2023-05-02T00:20:34;101179.16;;;18.62;
46015;BME280;36844;51.898;-0.874;2023-05-02T00:22:59;101164.88;;;18.61;
46015;BME280;36844;51.898;-0.874;2023-05-02T00:25:24;101162.53;;;18.60;
46015;BME280;36844;51.898;-0.874;2023-05-02T00:27:50;101163.69;;;18.59;
46015;BME280;36844;51.898;-0.874;2023-05-02T00:30:15;101160.25;;;18.58;
46015;BME280;36844;51.898;-0.874;2023-05-02T00:32:40;101164.88;;;18.58;
46015;BME280;36844;51.898;-0.874;2023-05-02T00:35:06;101169.88;;;18.56;
46015;BME280;36844;51.898;-0.874;2023-05-02T00:37:32;101177.97;;;18.56;
46015;BME280;36844;51.898;-0.874;2023-05-02T00:39:57;101170.25;;;18.54;
46015;BME280;36844;51.898;-0.874;2023-05-02T00:42:22;101175.66;;;18.54;
46015;BME280;36844;51.898;-0.874;2023-05-02T00:44:47;101180.25;;;18.54;
46015;BME280;36844;51.898;-0.874;2023-05-02T00:47:13;101184.09;;;18.53;
46015;BME280;36844;51.898;-0.874;2023-05-02T00:49:38;101185.28;;;18.52;
46015;BME280;36844;51.898;-0.874;2023-05-02T00:52:04;101179.09;;;18.51;
46015;BME280;36844;51.898;-0.874;2023-05-02T00:54:29;101181.03;;;18.51;
46015;BME280;36844;51.898;-0.874;2023-05-02T00:56:55;101176.78;;;18.50;
46015;BME280;36844;51.898;-0.874;2023-05-02T00:59:20;101187.56;;;18.50;
46015;BME280;36844;51.898;-0.874;2023-05-02T01:04:40;101189.09;;;18.47;
46015;BME280;36844;51.898;-0.874;2023-05-02T01:12:42;101197.97;;;18.44;
46015;BME280;36844;51.898;-0.874;2023-05-02T01:15:11;101199.88;;;18.44;
46015;BME280;36844;51.898;-0.874;2023-05-02T01:17:38;101195.63;;;18.43;
46015;BME280;36844;51.898;-0.874;2023-05-02T01:20:04;101187.56;;;18.43;
46015;BME280;36844;51.898;-0.874;2023-05-02T01:22:31;101196.03;;;18.41;
46015;BME280;36844;51.898;-0.874;2023-05-02T01:30:09;101195.25;;;18.41;
46015;BME280;36844;51.898;-0.874;2023-05-02T01:32:36;101201.03;;;18.39;
46015;BME280;36844;51.898;-0.874;2023-05-02T01:35:02;101200.25;;;18.39;
46015;BME280;36844;51.898;-0.874;2023-05-02T01:37:28;101202.94;;;18.39;
46015;BME280;36844;51.898;-0.874;2023-05-02T01:39:54;101201.41;;;18.38;
46015;BME280;36844;51.898;-0.874;2023-05-02T01:42:20;101193.31;;;18.38;
46015;BME280;36844;51.898;-0.874;2023-05-02T01:44:46;101194.47;;;18.37;
46015;BME280;36844;51.898;-0.874;2023-05-02T01:47:12;101199.06;;;18.36;
46015;BME280;36844;51.898;-0.874;2023-05-02T01:49:38;101209.06;;;18.36;
46015;BME280;36844;51.898;-0.874;2023-05-02T01:52:06;101205.63;;;18.35;
46015;BME280;36844;51.898;-0.874;2023-05-02T01:54:32;101215.66;;;18.35;
46015;BME280;36844;51.898;-0.874;2023-05-02T01:56:59;101214.88;;;18.34;
46015;BME280;36844;51.898;-0.874;2023-05-02T01:59:27;101216.78;;;18.34;
46015;BME280;36844;51.898;-0.874;2023-05-02T02:01:54;101214.09;;;18.34;
46015;BME280;36844;51.898;-0.874;2023-05-02T02:04:19;101228.72;;;18.33;
46015;BME280;36844;51.898;-0.874;2023-05-02T02:06:47;101229.88;;;18.32;
46015;BME280;36844;51.898;-0.874;2023-05-02T02:09:14;101229.88;;;18.32;
46015;BME280;36844;51.898;-0.874;2023-05-02T02:11:45;101228.72;;;18.33;
46015;BME280;36844;51.898;-0.874;2023-05-02T02:14:17;101237.22;;;18.31;
46015;BME280;36844;51.898;-0.874;2023-05-02T02:16:42;101242.97;;;18.30;
46015;BME280;36844;51.898;-0.874;2023-05-02T02:19:09;101255.31;;;18.31;
46015;BME280;36844;51.898;-0.874;2023-05-02T02:21:34;101258.38;;;18.29;
46015;BME280;36844;51.898;-0.874;2023-05-02T02:24:01;101257.59;;;18.29;
46015;BME280;36844;51.898;-0.874;2023-05-02T02:26:26;101264.91;;;18.28;
46015;BME280;36844;51.898;-0.874;2023-05-02T02:28:51;101268.00;;;18.27;
46015;BME280;36844;51.898;-0.874;2023-05-02T02:31:17;101271.50;;;18.27;
46015;BME280;36844;51.898;-0.874;2023-05-02T02:33:42;101271.50;;;18.27;
46015;BME280;36844;51.898;-0.874;2023-05-02T02:36:16;101269.94;;;18.26;
46015;BME280;36844;51.898;-0.874;2023-05-02T02:39:09;101274.53;;;18.26;
46015;BME280;36844;51.898;-0.874;2023-05-02T02:41:32;101278.38;;;18.25;
46015;BME280;36844;51.898;-0.874;2023-05-02T02:44:05;101277.63;;;18.24;
46015;BME280;36844;51.898;-0.874;2023-05-02T02:49:30;101281.47;;;18.23;
46015;BME280;36844;51.898;-0.874;2023-05-02T02:52:09;101288.78;;;18.23;
46015;BME280;36844;51.898;-0.874;2023-05-02T02:59:55;101288.34;;;18.21;
46015;BME280;36844;51.898;-0.874;2023-05-02T03:02:24;101282.59;;;18.19;
46015;BME280;36844;51.898;-0.874;2023-05-02T03:04:52;101288.75;;;18.19;
46015;BME280;36844;51.898;-0.874;2023-05-02T03:07:17;101294.16;;;18.19;
46015;BME280;36844;51.898;-0.874;2023-05-02T03:09:43;101290.69;;;18.19;
46015;BME280;36844;51.898;-0.874;2023-05-02T03:12:08;101282.59;;;18.19;
46015;BME280;36844;51.898;-0.874;2023-05-02T03:14:34;101277.19;;;18.19;
46015;BME280;36844;51.898;-0.874;2023-05-02T03:17:00;101282.59;;;18.19;
46015;BME280;36844;51.898;-0.874;2023-05-02T03:19:25;101287.19;;;18.18;
46015;BME280;36844;51.898;-0.874;2023-05-02T03:21:50;101282.94;;;18.17;
46015;BME280;36844;51.898;-0.874;2023-05-02T03:24:15;101276.78;;;18.17;
46015;BME280;36844;51.898;-0.874;2023-05-02T03:26:41;101280.25;;;18.17;
46015;BME280;36844;51.898;-0.874;2023-05-02T03:29:06;101286.81;;;18.16;
46015;BME280;36844;51.898;-0.874;2023-05-02T03:31:32;101286.03;;;18.16;
46015;BME280;36844;51.898;-0.874;2023-05-02T03:33:57;101291.44;;;18.16;
46015;BME280;36844;51.898;-0.874;2023-05-02T03:36:22;101294.13;;;18.16;
46015;BME280;36844;51.898;-0.874;2023-05-02T03:38:47;101295.25;;;18.15;
46015;BME280;36844;51.898;-0.874;2023-05-02T03:41:12;101296.06;;;18.15;
46015;BME280;36844;51.898;-0.874;2023-05-02T03:43:38;101309.88;;;18.14;
46015;BME280;36844;51.898;-0.874;2023-05-02T03:46:06;101310.66;;;18.14;
46015;BME280;36844;51.898;-0.874;2023-05-02T03:48:32;101309.88;;;18.14;
46015;BME280;36844;51.898;-0.874;2023-05-02T03:50:57;101309.13;;;18.13;
46015;BME280;36844;51.898;-0.874;2023-05-02T03:53:23;101315.69;;;18.12;
46015;BME280;36844;51.898;-0.874;2023-05-02T03:55:48;101321.88;;;18.13;
46015;BME280;36844;51.898;-0.874;2023-05-02T03:58:13;101331.88;;;18.12;
46015;BME280;36844;51.898;-0.874;2023-05-02T04:00:39;101331.88;;;18.12;
46015;BME280;36844;51.898;-0.874;2023-05-02T04:03:04;101334.91;;;18.11;
46015;BME280;36844;51.898;-0.874;2023-05-02T04:05:29;101333.00;;;18.11;
46015;BME280;36844;51.898;-0.874;2023-05-02T04:07:58;101338.38;;;18.11;
46015;BME280;36844;51.898;-0.874;2023-05-02T04:10:23;101347.59;;;18.10;
46015;BME280;36844;51.898;-0.874;2023-05-02T04:12:48;101345.31;;;18.09;
46015;BME280;36844;51.898;-0.874;2023-05-02T04:15:14;101350.72;;;18.09;
46015;BME280;36844;51.898;-0.874;2023-05-02T04:17:39;101337.22;;;18.09;
46015;BME280;36844;51.898;-0.874;2023-05-02T04:20:05;101342.63;;;18.09;
46015;BME280;36844;51.898;-0.874;2023-05-02T04:22:30;101335.66;;;18.08;
46015;BME280;36844;51.898;-0.874;2023-05-02T04:24:56;101332.97;;;18.08;
46015;BME280;36844;51.898;-0.874;2023-05-02T04:27:21;101334.47;;;18.05;
46015;BME280;36844;51.898;-0.874;2023-05-02T04:29:47;101344.88;;;18.07;
46015;BME280;36844;51.898;-0.874;2023-05-02T04:32:12;101346.03;;;18.06;
46015;BME280;36844;51.898;-0.874;2023-05-02T04:34:37;101344.50;;;18.05;
46015;BME280;36844;51.898;-0.874;2023-05-02T04:37:03;101342.56;;;18.05;
46015;BME280;36844;51.898;-0.874;2023-05-02T04:39:28;101344.50;;;18.05;
46015;BME280;36844;51.898;-0.874;2023-05-02T04:41:53;101348.34;;;18.04;
46015;BME280;36844;51.898;-0.874;2023-05-02T04:44:18;101342.16;;;18.03;
46015;BME280;36844;51.898;-0.874;2023-05-02T04:46:44;101352.16;;;18.03;
46015;BME280;36844;51.898;-0.874;2023-05-02T04:49:09;101346.78;;;18.03;
46015;BME280;36844;51.898;-0.874;2023-05-02T04:51:35;101361.41;;;18.02;
46015;BME280;36844;51.898;-0.874;2023-05-02T04:54:00;101358.72;;;18.02;
46015;BME280;36844;51.898;-0.874;2023-05-02T04:56:26;101362.19;;;18.02;
46015;BME280;36844;51.898;-0.874;2023-05-02T04:58:51;101356.03;;;18.02;
46015;BME280;36844;51.898;-0.874;2023-05-02T05:01:16;101362.56;;;18.01;
46015;BME280;36844;51.898;-0.874;2023-05-02T05:03:42;101365.28;;;18.01;
46015;BME280;36844;51.898;-0.874;2023-05-02T05:06:07;101378.75;;;18.01;
46015;BME280;36844;51.898;-0.874;2023-05-02T05:08:32;101377.97;;;18.00;
46015;BME280;36844;51.898;-0.874;2023-05-02T05:10:57;101377.19;;;18.00;
46015;BME280;36844;51.898;-0.874;2023-05-02T05:13:23;101374.47;;;18.00;
46015;BME280;36844;51.898;-0.874;2023-05-02T05:15:48;101384.50;;;17.99;
46015;BME280;36844;51.898;-0.874;2023-05-02T05:18:13;101379.09;;;17.99;
46015;BME280;36844;51.898;-0.874;2023-05-02T05:20:38;101386.44;;;17.99;
46015;BME280;36844;51.898;-0.874;2023-05-02T05:23:03;101383.72;;;17.99;
46015;BME280;36844;51.898;-0.874;2023-05-02T05:25:29;101384.13;;;17.97;
46015;BME280;36844;51.898;-0.874;2023-05-02T05:27:54;101387.56;;;17.98;
46015;BME280;36844;51.898;-0.874;2023-05-02T05:30:22;101396.81;;;17.97;
46015;BME280;36844;51.898;-0.874;2023-05-02T05:32:48;101396.81;;;17.97;
46015;BME280;36844;51.898;-0.874;2023-05-02T05:35:13;101400.63;;;17.96;
46015;BME280;36844;51.898;-0.874;2023-05-02T05:37:38;101392.53;;;17.96;
46015;BME280;36844;51.898;-0.874;2023-05-02T05:40:07;101401.41;;;17.96;
46015;BME280;36844;51.898;-0.874;2023-05-02T05:42:32;101408.72;;;17.96;
46015;BME280;36844;51.898;-0.874;2023-05-02T05:44:58;101404.50;;;17.95;
46015;BME280;36844;51.898;-0.874;2023-05-02T05:47:23;101411.41;;;17.96;
46015;BME280;36844;51.898;-0.874;2023-05-02T05:49:54;101418.75;;;17.95;
46015;BME280;36844;51.898;-0.874;2023-05-02T05:52:20;101422.19;;;17.96;
46015;BME280;36844;51.898;-0.874;2023-05-02T05:54:46;101419.50;;;17.96;
46015;BME280;36844;51.898;-0.874;2023-05-02T05:57:11;101409.50;;;17.96;
46015;BME280;36844;51.898;-0.874;2023-05-02T05:59:36;101409.13;;;17.98;
46015;BME280;36844;51.898;-0.874;2023-05-02T06:02:01;101414.13;;;17.99;
46015;BME280;36844;51.898;-0.874;2023-05-02T06:04:27;101420.72;;;18.02;
46015;BME280;36844;51.898;-0.874;2023-05-02T06:06:53;101419.56;;;18.03;
46015;BME280;36844;51.898;-0.874;2023-05-02T06:09:18;101422.31;;;18.06;
46015;BME280;36844;51.898;-0.874;2023-05-02T06:11:43;101417.72;;;18.10;
46015;BME280;36844;51.898;-0.874;2023-05-02T06:14:09;101417.72;;;18.14;
46015;BME280;36844;51.898;-0.874;2023-05-02T06:16:34;101411.63;;;18.17;
46015;BME280;36844;51.898;-0.874;2023-05-02T06:19:00;101420.50;;;18.21;
46015;BME280;36844;51.898;-0.874;2023-05-02T06:21:25;101420.53;;;18.24;
46015;BME280;36844;51.898;-0.874;2023-05-02T06:23:50;101418.63;;;18.28;
46015;BME280;36844;51.898;-0.874;2023-05-02T06:26:16;101427.53;;;18.32;
46015;BME280;36844;51.898;-0.874;2023-05-02T06:28:41;101430.25;;;18.36;
46015;BME280;36844;51.898;-0.874;2023-05-02T06:31:06;101430.31;;;18.39;
46015;BME280;36844;51.898;-0.874;2023-05-02T06:33:32;101438.41;;;18.43;
46015;BME280;36844;51.898;-0.874;2023-05-02T06:35:57;101434.94;;;18.42;
46015;BME280;36844;51.898;-0.874;2023-05-02T06:38:22;101434.56;;;18.44;
46015;BME280;36844;51.898;-0.874;2023-05-02T06:40:48;101431.50;;;18.45;
46015;BME280;36844;51.898;-0.874;2023-05-02T06:43:14;101431.88;;;18.47;
46015;BME280;36844;51.898;-0.874;2023-05-02T06:45:39;101436.94;;;18.49;
46015;BME280;36844;51.898;-0.874;2023-05-02T06:48:04;101433.84;;;18.50;
46015;BME280;36844;51.898;-0.874;2023-05-02T06:50:30;101445.81;;;18.53;
46015;BME280;36844;51.898;-0.874;2023-05-02T06:52:55;101438.50;;;18.53;
46015;BME280;36844;51.898;-0.874;2023-05-02T06:55:20;101440.84;;;18.55;
46015;BME280;36844;51.898;-0.874;2023-05-02T06:57:46;101446.25;;;18.55;
46015;BME280;36844;51.898;-0.874;2023-05-02T07:00:11;101444.28;;;18.55;
46015;BME280;36844;51.898;-0.874;2023-05-02T07:02:37;101452.00;;;18.57;
46015;BME280;36844;51.898;-0.874;2023-05-02T07:05:02;101447.41;;;18.57;
46015;BME280;36844;51.898;-0.874;2023-05-02T07:07:27;101443.56;;;18.58;
46015;BME280;36844;51.898;-0.874;2023-05-02T07:09:52;101444.31;;;18.59;
46015;BME280;36844;51.898;-0.874;2023-05-02T07:12:18;101451.25;;;18.60;
46015;BME280;36844;51.898;-0.874;2023-05-02T07:14:43;101450.50;;;18.59;
46015;BME280;36844;51.898;-0.874;2023-05-02T07:17:10;101453.94;;;18.60;
46015;BME280;36844;51.898;-0.874;2023-05-02T07:19:35;101453.19;;;18.59;
46015;BME280;36844;51.898;-0.874;2023-05-02T07:22:01;101450.50;;;18.59;
46015;BME280;36844;51.898;-0.874;2023-05-02T07:24:26;101454.38;;;18.58;
46015;BME280;36844;51.898;-0.874;2023-05-02T07:26:51;101464.00;;;18.59;
46015;BME280;36844;51.898;-0.874;2023-05-02T07:29:17;101460.88;;;18.57;
46015;BME280;36844;51.898;-0.874;2023-05-02T07:31:42;101460.88;;;18.57;
46015;BME280;36844;51.898;-0.874;2023-05-02T07:34:07;101465.50;;;18.57;
46015;BME280;36844;51.898;-0.874;2023-05-02T07:36:32;101472.06;;;18.56;
46015;BME280;36844;51.898;-0.874;2023-05-02T07:38:57;101468.97;;;18.54;
46015;BME280;36844;51.898;-0.874;2023-05-02T07:41:23;101464.69;;;18.53;
46015;BME280;36844;51.898;-0.874;2023-05-02T07:43:48;101472.03;;;18.52;
46015;BME280;36844;51.898;-0.874;2023-05-02T07:46:13;101471.25;;;18.52;
46015;BME280;36844;51.898;-0.874;2023-05-02T07:48:38;101461.63;;;18.51;
46015;BME280;36844;51.898;-0.874;2023-05-02T07:51:08;101462.72;;;18.46;
46015;BME280;36844;51.898;-0.874;2023-05-02T07:53:34;101475.81;;;18.44;
46015;BME280;36844;51.898;-0.874;2023-05-02T07:56:00;101481.97;;;18.41;
46015;BME280;36844;51.898;-0.874;2023-05-02T07:58:26;101481.19;;;18.41;
46015;BME280;36844;51.898;-0.874;2023-05-02T08:00:51;101478.06;;;18.39;
46015;BME280;36844;51.898;-0.874;2023-05-02T08:03:16;101480.03;;;18.38;
46015;BME280;36844;51.898;-0.874;2023-05-02T08:05:42;101490.81;;;18.38;
46015;BME280;36844;51.898;-0.874;2023-05-02T08:08:07;101490.03;;;18.38;
46015;BME280;36844;51.898;-0.874;2023-05-02T08:10:32;101486.53;;;18.37;
46015;BME280;36844;51.898;-0.874;2023-05-02T08:12:57;101483.06;;;18.37;
46015;BME280;36844;51.898;-0.874;2023-05-02T08:15:23;101492.28;;;18.36;
46015;BME280;36844;51.898;-0.874;2023-05-02T08:17:48;101496.94;;;18.35;
46015;BME280;36844;51.898;-0.874;2023-05-02T08:20:13;101494.59;;;18.34;
46015;BME280;36844;51.898;-0.874;2023-05-02T08:22:38;101495.75;;;18.33;
46015;BME280;36844;51.898;-0.874;2023-05-02T08:25:04;101498.44;;;18.33;
46015;BME280;36844;51.898;-0.874;2023-05-02T08:27:29;101508.44;;;18.32;
46015;BME280;36844;51.898;-0.874;2023-05-02T08:29:54;101508.84;;;18.31;
46015;BME280;36844;51.898;-0.874;2023-05-02T08:32:19;101512.34;;;18.31;
46015;BME280;36844;51.898;-0.874;2023-05-02T08:34:46;101524.25;;;18.30;
46015;BME280;36844;51.898;-0.874;2023-05-02T08:37:11;101521.56;;;18.30;
46015;BME280;36844;51.898;-0.874;2023-05-02T08:39:37;101521.56;;;18.30;
46015;BME280;36844;51.898;-0.874;2023-05-02T08:42:08;101522.69;;;18.29;
46015;BME280;36844;51.898;-0.874;2023-05-02T08:44:33;101529.66;;;18.30;
46015;BME280;36844;51.898;-0.874;2023-05-02T08:46:59;101534.25;;;18.30;
46015;BME280;36844;51.898;-0.874;2023-05-02T08:49:24;101530.44;;;18.31;
46015;BME280;36844;51.898;-0.874;2023-05-02T08:51:50;101534.25;;;18.30;
46015;BME280;36844;51.898;-0.874;2023-05-02T08:54:17;101534.25;;;18.30;
46015;BME280;36844;51.898;-0.874;2023-05-02T08:56:43;101535.81;;;18.31;
46015;BME280;36844;51.898;-0.874;2023-05-02T08:59:10;101542.00;;;18.31;
46015;BME280;36844;51.898;-0.874;2023-05-02T09:01:35;101531.56;;;18.30;
46015;BME280;36844;51.898;-0.874;2023-05-02T09:04:01;101535.81;;;18.31;
46015;BME280;36844;51.898;-0.874;2023-05-02T09:06:26;101535.81;;;18.31;
46015;BME280;36844;51.898;-0.874;2023-05-02T09:08:53;101540.06;;;18.32;
46015;BME280;36844;51.898;-0.874;2023-05-02T09:11:18;101533.91;;;18.31;
46015;BME280;36844;51.898;-0.874;2023-05-02T09:13:46;101537.38;;;18.32;
46015;BME280;36844;51.898;-0.874;2023-05-02T09:16:14;101545.44;;;18.32;
46015;BME280;36844;51.898;-0.874;2023-05-02T09:18:44;101536.59;;;18.31;
46015;BME280;36844;51.898;-0.874;2023-05-02T09:21:13;101537.38;;;18.32;
46015;BME280;36844;51.898;-0.874;2023-05-02T09:23:39;101537.38;;;18.32;
46015;BME280;36844;51.898;-0.874;2023-05-02T09:26:12;101539.31;;;18.31;
46015;BME280;36844;51.898;-0.874;2023-05-02T09:28:47;101534.66;;;18.32;
46015;BME280;36844;51.898;-0.874;2023-05-02T09:31:16;101533.91;;;18.31;
46015;BME280;36844;51.898;-0.874;2023-05-02T09:33:42;101532.72;;;18.32;
46015;BME280;36844;51.898;-0.874;2023-05-02T09:36:08;101540.81;;;18.32;
46015;BME280;36844;51.898;-0.874;2023-05-02T09:38:33;101543.50;;;18.32;
46015;BME280;36844;51.898;-0.874;2023-05-02T09:40:59;101538.13;;;18.32;
46015;BME280;36844;51.898;-0.874;2023-05-02T09:43:25;101537.38;;;18.32;
46015;BME280;36844;51.898;-0.874;2023-05-02T09:46:03;101538.91;;;18.33;
46015;BME280;36844;51.898;-0.874;2023-05-02T09:48:29;101541.59;;;18.33;
46015;BME280;36844;51.898;-0.874;2023-05-02T09:50:54;101550.47;;;18.33;
46015;BME280;36844;51.898;-0.874;2023-05-02T09:53:20;101553.16;;;18.33;
46015;BME280;36844;51.898;-0.874;2023-05-02T09:55:45;101556.66;;;18.34;
46015;BME280;36844;51.898;-0.874;2023-05-02T09:58:20;101553.16;;;18.33;
46015;BME280;36844;51.898;-0.874;2023-05-02T10:00:47;101559.34;;;18.34;
46015;BME280;36844;51.898;-0.874;2023-05-02T10:03:16;101567.44;;;18.34;
46015;BME280;36844;51.898;-0.874;2023-05-02T10:05:43;101559.34;;;18.34;
46015;BME280;36844;51.898;-0.874;2023-05-02T10:08:08;101563.63;;;18.35;
46015;BME280;36844;51.898;-0.874;2023-05-02T10:10:37;101555.53;;;18.35;
46015;BME280;36844;51.898;-0.874;2023-05-02T10:13:03;101569.00;;;18.35;
46015;BME280;36844;51.898;-0.874;2023-05-02T10:15:32;101560.13;;;18.34;
46015;BME280;36844;51.898;-0.874;2023-05-02T10:17:58;101559.34;;;18.34;
46015;BME280;36844;51.898;-0.874;2023-05-02T10:20:28;101562.78;;;18.31;
46015;BME280;36844;51.898;-0.874;2023-05-02T10:22:55;101571.19;;;18.26;
46015;BME280;36844;51.898;-0.874;2023-05-02T10:25:23;101566.50;;;18.19;
46015;BME280;36844;51.898;-0.874;2023-05-02T10:27:48;101573.41;;;18.17;
46015;BME280;36844;51.898;-0.874;2023-05-02T10:30:13;101574.56;;;18.16;
46015;BME280;36844;51.898;-0.874;2023-05-02T10:32:39;101575.69;;;18.15;
46015;BME280;36844;51.898;-0.874;2023-05-02T10:35:05;101574.13;;;18.14;
46015;BME280;36844;51.898;-0.874;2023-05-02T10:37:32;101575.69;;;18.15;
46015;BME280;36844;51.898;-0.874;2023-05-02T10:39:58;101579.53;;;18.14;
46015;BME280;36844;51.898;-0.874;2023-05-02T10:42:24;101583.78;;;18.15;
46015;BME280;36844;51.898;-0.874;2023-05-02T10:44:50;101585.69;;;18.14;
46015;BME280;36844;51.898;-0.874;2023-05-02T10:49:50;101583.78;;;18.15;
46015;BME280;36844;51.898;-0.874;2023-05-02T10:54:52;101589.97;;;18.15;
46015;BME280;36844;51.898;-0.874;2023-05-02T10:57:53;101586.47;;;18.15;
46015;BME280;36844;51.898;-0.874;2023-05-02T11:00:26;101587.28;;;18.15;
46015;BME280;36844;51.898;-0.874;2023-05-02T11:02:51;101588.06;;;18.16;
46015;BME280;36844;51.898;-0.874;2023-05-02T11:05:17;101592.28;;;18.17;
46015;BME280;36844;51.898;-0.874;2023-05-02T11:07:42;101594.97;;;18.17;
46015;BME280;36844;51.898;-0.874;2023-05-02T11:12:45;101588.84;;;18.16;
46015;BME280;36844;51.898;-0.874;2023-05-02T11:15:11;101583.44;;;18.16;
46015;BME280;36844;51.898;-0.874;2023-05-02T11:20:20;101591.53;;;18.16;
46015;BME280;36844;51.898;-0.874;2023-05-02T11:22:46;101586.53;;;18.18;
46015;BME280;36844;51.898;-0.874;2023-05-02T11:25:30;101598.09;;;18.19;
46015;BME280;36844;51.898;-0.874;2023-05-02T11:27:56;101606.19;;;18.19;
46015;BME280;36844;51.898;-0.874;2023-05-02T11:30:38;101601.94;;;18.21;
46015;BME280;36844;51.898;-0.874;2023-05-02T11:35:28;101603.19;;;18.24;
46015;BME280;36844;51.898;-0.874;2023-05-02T11:37:59;101604.34;;;18.26;
46015;BME280;36844;51.898;-0.874;2023-05-02T11:40:25;101601.31;;;18.28;
46015;BME280;36844;51.898;-0.874;2023-05-02T11:42:51;101608.66;;;18.31;
46015;BME280;36844;51.898;-0.874;2023-05-02T11:45:16;101598.25;;;18.33;
46015;BME280;36844;51.898;-0.874;2023-05-02T11:47:42;101607.53;;;18.35;
46015;BME280;36844;51.898;-0.874;2023-05-02T11:50:08;101611.41;;;18.38;
46015;BME280;36844;51.898;-0.874;2023-05-02T11:52:36;101607.97;;;18.41;
46015;BME280;36844;51.898;-0.874;2023-05-02T11:55:03;101611.50;;;18.45;
46015;BME280;36844;51.898;-0.874;2023-05-02T11:57:31;101614.59;;;18.47;
46015;BME280;36844;51.898;-0.874;2023-05-02T11:59:57;101616.53;;;18.50;
46015;BME280;36844;51.898;-0.874;2023-05-02T12:02:35;101610.78;;;18.51;
46015;BME280;36844;51.898;-0.874;2023-05-02T12:05:01;101620.06;;;18.54;
46015;BME280;36844;51.898;-0.874;2023-05-02T12:07:36;101620.47;;;18.56;
46015;BME280;36844;51.898;-0.874;2023-05-02T12:10:02;101616.25;;;18.58;
46015;BME280;36844;51.898;-0.874;2023-05-02T12:12:27;101619.34;;;18.60;
46015;BME280;36844;51.898;-0.874;2023-05-02T12:14:52;101620.91;;;18.61;
46015;BME280;36844;51.898;-0.874;2023-05-02T12:17:18;101626.72;;;18.63;
46015;BME280;36844;51.898;-0.874;2023-05-02T12:19:43;101621.72;;;18.65;
46015;BME280;36844;51.898;-0.874;2023-05-02T12:22:08;101622.50;;;18.66;
46015;BME280;36844;51.898;-0.874;2023-05-02T12:24:34;101627.50;;;18.67;
46015;BME280;36844;51.898;-0.874;2023-05-02T12:27:10;101619.84;;;18.69;
46015;BME280;36844;51.898;-0.874;2023-05-02T12:29:42;101619.44;;;18.71;
46015;BME280;36844;51.898;-0.874;2023-05-02T12:32:08;101630.25;;;18.71;
46015;BME280;36844;51.898;-0.874;2023-05-02T12:34:34;101626.84;;;18.74;
46015;BME280;36844;51.898;-0.874;2023-05-02T12:37:00;101620.25;;;18.75;
46015;BME280;36844;51.898;-0.874;2023-05-02T12:42:00;101614.88;;;18.78;
46015;BME280;36844;51.898;-0.874;2023-05-02T12:44:35;101612.63;;;18.81;
46015;BME280;36844;51.898;-0.874;2023-05-02T12:47:01;101616.09;;;18.81;
46015;BME280;36844;51.898;-0.874;2023-05-02T12:49:26;101614.91;;;18.82;
46015;BME280;36844;51.898;-0.874;2023-05-02T12:51:52;101611.09;;;18.83;
46015;BME280;36844;51.898;-0.874;2023-05-02T12:54:20;101616.88;;;18.85;
46015;BME280;36844;51.898;-0.874;2023-05-02T12:56:45;101617.28;;;18.87;
46015;BME280;36844;51.898;-0.874;2023-05-02T12:59:24;101611.53;;;18.89;
46015;BME280;36844;51.898;-0.874;2023-05-02T13:01:50;101610.34;;;18.90;
46015;BME280;36844;51.898;-0.874;2023-05-02T13:04:15;101610.00;;;18.91;
46015;BME280;36844;51.898;-0.874;2023-05-02T13:06:40;101614.25;;;18.92;
46015;BME280;36844;51.898;-0.874;2023-05-02T13:09:06;101620.84;;;18.95;
46015;BME280;36844;51.898;-0.874;2023-05-02T13:11:31;101616.19;;;18.95;
46015;BME280;36844;51.898;-0.874;2023-05-02T13:13:56;101630.88;;;18.98;
46015;BME280;36844;51.898;-0.874;2023-05-02T13:16:24;101630.50;;;18.99;
46015;BME280;36844;51.898;-0.874;2023-05-02T13:18:49;101629.00;;;19.02;
46015;BME280;36844;51.898;-0.874;2023-05-02T13:21:15;101627.06;;;19.02;
46015;BME280;36844;51.898;-0.874;2023-05-02T13:23:40;101618.94;;;19.02;
46015;BME280;36844;51.898;-0.874;2023-05-02T13:26:08;101618.59;;;19.04;
46015;BME280;36844;51.898;-0.874;2023-05-02T13:28:33;101615.91;;;19.04;
46015;BME280;36844;51.898;-0.874;2023-05-02T13:30:59;101622.88;;;19.05;
46015;BME280;36844;51.898;-0.874;2023-05-02T13:33:25;101627.47;;;19.04;
46015;BME280;36844;51.898;-0.874;2023-05-02T13:35:50;101624.00;;;19.04;
46015;BME280;36844;51.898;-0.874;2023-05-02T13:38:15;101622.09;;;19.04;
46015;BME280;36844;51.898;-0.874;2023-05-02T13:40:40;101625.91;;;19.03;
46015;BME280;36844;51.898;-0.874;2023-05-02T13:43:05;101621.31;;;19.04;
46015;BME280;36844;51.898;-0.874;2023-05-02T13:45:31;101622.44;;;19.03;
46015;BME280;36844;51.898;-0.874;2023-05-02T13:47:56;101622.44;;;19.03;
46015;BME280;36844;51.898;-0.874;2023-05-02T13:50:21;101627.06;;;19.02;
46015;BME280;36844;51.898;-0.874;2023-05-02T13:52:47;101626.28;;;19.02;
46015;BME280;36844;51.898;-0.874;2023-05-02T13:55:12;101631.69;;;19.02;
46015;BME280;36844;51.898;-0.874;2023-05-02T13:57:37;101633.63;;;19.01;
46015;BME280;36844;51.898;-0.874;2023-05-02T14:00:02;101633.63;;;19.01;
46015;BME280;36844;51.898;-0.874;2023-05-02T14:02:28;101637.47;;;19.00;
46015;BME280;36844;51.898;-0.874;2023-05-02T14:04:53;101625.88;;;19.00;